Time;durP1;ratioP1;P1;durP2;ratioP2;P2;SDS_P1;SDS_P2;PMS_P1;PMS_P2;Temp;Humidity;BMP_temperature;BMP_pressure;BME280_temperature;BME280_humidity;BME280_pressure;Samples;Min_cycle;Max_cycle;Signal;HPM_P1;HPM_P2
2022/07/24 00:00:41;;;;;;;13.43;11.18;;;22.90;99.20;;;;;;5054906;28;20025;-57
2022/07/24 00:03:07;;;;;;;13.27;11.20;;;22.90;98.90;;;;;;5054600;28;20094;-57
2022/07/24 00:05:33;;;;;;;13.00;10.82;;;22.90;98.50;;;;;;5054667;28;20114;-57
2022/07/24 00:07:59;;;;;;;14.48;10.30;;;22.90;98.00;;;;;;5054948;28;20025;-57
2022/07/24 00:10:25;;;;;;;12.50;10.55;;;22.90;97.70;;;;;;5054774;28;20032;-57
2022/07/24 00:12:51;;;;;;;12.90;10.68;;;22.90;98.10;;;;;;5054858;28;20398;-57
2022/07/24 00:15:17;;;;;;;16.95;10.50;;;22.90;98.10;;;;;;5054820;28;20466;-57
2022/07/24 00:17:43;;;;;;;13.38;9.88;;;23.00;97.40;;;;;;5054912;28;20040;-57
2022/07/24 00:20:10;;;;;;;13.48;11.20;;;23.00;96.70;;;;;;5054686;28;20055;-57
2022/07/24 00:22:36;;;;;;;18.70;11.85;;;23.20;95.20;;;;;;5054482;28;20039;-57
2022/07/24 00:25:03;;;;;;;15.00;10.65;;;23.20;94.40;;;;;;5054721;28;20103;-57
2022/07/24 00:27:29;;;;;;;15.43;11.20;;;23.30;93.80;;;;;;5054528;28;20056;-57
2022/07/24 00:29:55;;;;;;;14.43;10.75;;;23.20;95.40;;;;;;5054366;28;20087;-57
2022/07/24 00:32:21;;;;;;;12.88;10.77;;;23.40;94.60;;;;;;5054552;28;20056;-57
2022/07/24 00:34:47;;;;;;;20.02;11.68;;;23.30;94.40;;;;;;5054318;28;20079;-57
2022/07/24 00:37:12;;;;;;;12.13;10.80;;;23.30;95.60;;;;;;5054407;28;20029;-57
2022/07/24 00:39:38;;;;;;;15.35;12.48;;;23.20;95.80;;;;;;5054241;28;20021;-57
2022/07/24 00:42:04;;;;;;;17.17;11.90;;;23.10;96.70;;;;;;5054290;28;20096;-57
2022/07/24 00:44:30;;;;;;;18.55;11.52;;;23.10;97.00;;;;;;5054474;28;20040;-57
2022/07/24 00:46:56;;;;;;;17.25;12.65;;;23.00;97.10;;;;;;5054429;28;20483;-57
2022/07/24 00:49:22;;;;;;;17.85;12.23;;;23.00;97.50;;;;;;5054367;28;20070;-57
2022/07/24 00:51:50;;;;;;;16.83;12.23;;;22.90;98.20;;;;;;5054299;28;20029;-57
2022/07/24 00:54:19;;;;;;;13.73;11.75;;;22.90;98.00;;;;;;5054453;28;20032;-57
2022/07/24 00:56:47;;;;;;;16.40;12.32;;;22.90;98.20;;;;;;5054345;28;20379;-57
2022/07/24 00:59:13;;;;;;;16.63;12.02;;;22.80;98.40;;;;;;5054135;28;20039;-57
2022/07/24 01:01:40;;;;;;;20.67;13.63;;;22.80;98.30;;;;;;5054619;28;20336;-57
2022/07/24 01:04:06;;;;;;;14.95;12.82;;;22.70;99.90;;;;;;5055067;28;20084;-57
2022/07/24 01:06:32;;;;;;;17.35;12.40;;;22.60;99.90;;;;;;5058234;28;20497;-57
2022/07/24 01:08:59;;;;;;;19.20;13.60;;;22.50;99.90;;;;;;5058128;28;20102;-57
2022/07/24 01:11:25;;;;;;;20.77;14.48;;;22.50;99.90;;;;;;5040320;28;20033;-57
2022/07/24 01:13:51;;;;;;;17.83;12.98;;;22.40;99.90;;;;;;5058039;28;20060;-57
2022/07/24 01:16:17;;;;;;;18.52;13.55;;;22.60;99.90;;;;;;5058122;28;20025;-57
2022/07/24 01:18:44;;;;;;;18.63;12.60;;;22.50;99.90;;;;;;5058091;28;20025;-57
2022/07/24 01:21:10;;;;;;;18.80;13.95;;;22.30;99.90;;;;;;5058073;28;20029;-57
2022/07/24 01:23:36;;;;;;;22.88;15.05;;;22.20;99.90;;;;;;5057832;28;20033;-57
2022/07/24 01:26:02;;;;;;;18.23;15.18;;;22.30;99.90;;;;;;5057806;28;20112;-57
2022/07/24 01:28:28;;;;;;;25.63;16.67;;;22.20;99.90;;;;;;5057900;28;20367;-57
2022/07/24 01:30:54;;;;;;;22.83;18.20;;;22.30;99.90;;;;;;5057640;28;20033;-57
2022/07/24 01:33:20;;;;;;;24.02;16.48;;;22.30;99.90;;;;;;5057814;28;20029;-57
2022/07/24 01:35:46;;;;;;;25.58;17.40;;;22.20;99.90;;;;;;5057728;28;20029;-57
2022/07/24 01:38:15;;;;;;;20.30;16.73;;;22.20;99.90;;;;;;5057479;28;20035;-57
2022/07/24 01:40:41;;;;;;;25.95;17.77;;;22.10;99.90;;;;;;5057719;28;20040;-57
2022/07/24 01:43:07;;;;;;;23.05;17.38;;;22.10;99.90;;;;;;5039625;28;20033;-57
2022/07/24 01:45:34;;;;;;;24.83;18.35;;;22.10;99.90;;;;;;5057685;28;20103;-57
2022/07/24 01:48:00;;;;;;;25.55;19.00;;;22.00;99.90;;;;;;5057529;28;20029;-57
2022/07/24 01:50:26;;;;;;;28.75;19.25;;;22.00;99.90;;;;;;5057314;28;20033;-57
2022/07/24 01:52:53;;;;;;;25.23;17.98;;;22.00;99.90;;;;;;5057373;28;20031;-57
2022/07/24 01:55:20;;;;;;;25.15;17.98;;;22.00;99.90;;;;;;5057290;28;20051;-57
2022/07/24 01:57:46;;;;;;;26.38;18.58;;;21.80;99.90;;;;;;5057164;28;20092;-57
2022/07/24 02:00:12;;;;;;;22.70;17.90;;;21.90;99.90;;;;;;5057274;28;20443;-57
2022/07/24 02:02:43;;;;;;;22.00;17.35;;;21.80;99.90;;;;;;5057299;28;20056;-57
2022/07/24 02:05:12;;;;;;;24.75;18.65;;;21.70;99.90;;;;;;5057048;28;20037;-57
2022/07/24 02:07:39;;;;;;;27.17;18.80;;;21.70;99.90;;;;;;5057035;28;20359;-57
2022/07/24 02:10:06;;;;;;;28.52;20.45;;;21.70;99.90;;;;;;5057063;28;20029;-57
2022/07/24 02:12:32;;;;;;;29.38;19.67;;;21.60;99.90;;;;;;5057101;28;20084;-57
2022/07/24 02:14:57;;;;;;;28.70;19.52;;;21.50;99.90;;;;;;5056623;28;20122;-57
2022/07/24 02:17:23;;;;;;;27.20;19.27;;;21.50;99.90;;;;;;5056867;28;20466;-57
2022/07/24 02:19:49;;;;;;;27.70;20.33;;;21.50;99.90;;;;;;5056878;28;20465;-57
2022/07/24 02:22:15;;;;;;;32.08;21.55;;;21.40;99.90;;;;;;5056917;28;20060;-57
2022/07/24 02:24:41;;;;;;;29.63;21.63;;;21.50;99.90;;;;;;5056907;28;20406;-57
2022/07/24 02:27:07;;;;;;;30.30;23.80;;;21.50;99.90;;;;;;5057074;28;20029;-57
2022/07/24 02:29:33;;;;;;;37.88;25.50;;;21.50;99.90;;;;;;5056685;28;20025;-57
2022/07/24 02:32:00;;;;;;;36.17;22.08;;;21.40;99.90;;;;;;5056779;28;20024;-57
2022/07/24 02:34:26;;;;;;;33.28;24.02;;;21.40;99.90;;;;;;5038693;28;20033;-57
2022/07/24 02:36:52;;;;;;;36.72;23.33;;;21.40;99.90;;;;;;5056627;28;20025;-57
2022/07/24 02:39:18;;;;;;;39.10;24.15;;;21.30;99.90;;;;;;5056519;28;20032;-57
2022/07/24 02:41:44;;;;;;;44.50;25.98;;;21.40;99.90;;;;;;5056407;28;20059;-57
2022/07/24 02:44:10;;;;;;;44.55;25.92;;;21.40;99.90;;;;;;5056510;28;20443;-57
2022/07/24 02:46:37;;;;;;;36.55;23.67;;;21.40;99.90;;;;;;5056513;28;20064;-57
2022/07/24 02:49:03;;;;;;;41.95;24.60;;;21.50;99.90;;;;;;5056311;28;20064;-57
2022/07/24 02:51:29;;;;;;;40.08;26.08;;;21.50;99.90;;;;;;5056424;28;20035;-57
2022/07/24 02:53:54;;;;;;;40.00;24.13;;;21.50;99.90;;;;;;5056170;28;20112;-57
2022/07/24 02:56:20;;;;;;;43.33;25.80;;;21.40;99.90;;;;;;5056220;28;20033;-57
2022/07/24 02:58:46;;;;;;;43.83;27.30;;;21.40;99.90;;;;;;5056187;28;20053;-57
2022/07/24 03:01:12;;;;;;;43.35;27.30;;;21.40;99.90;;;;;;5056272;28;20029;-57
2022/07/24 03:03:38;;;;;;;40.20;27.95;;;21.40;99.90;;;;;;5055843;28;20474;-57
2022/07/24 03:06:04;;;;;;;48.88;29.58;;;21.40;99.90;;;;;;5056117;28;20117;-57
2022/07/24 03:08:30;;;;;;;50.88;30.83;;;21.50;99.90;;;;;;5056040;28;20051;-57
2022/07/24 03:10:56;;;;;;;44.90;28.92;;;21.50;99.90;;;;;;5056315;28;20036;-57
2022/07/24 03:13:22;;;;;;;44.72;28.65;;;21.50;99.90;;;;;;5055894;28;20021;-57
2022/07/24 03:15:48;;;;;;;42.33;28.25;;;21.50;99.90;;;;;;5055710;28;20467;-57
2022/07/24 03:18:14;;;;;;;42.35;27.58;;;21.40;99.90;;;;;;5038147;28;20478;-57
2022/07/24 03:20:39;;;;;;;41.63;27.27;;;21.40;99.90;;;;;;5055812;28;20029;-57
2022/07/24 03:23:05;;;;;;;47.30;30.17;;;21.30;99.90;;;;;;5054399;28;20028;-57
2022/07/24 03:25:31;;;;;;;50.38;28.88;;;21.20;99.90;;;;;;5055632;28;20021;-57
2022/07/24 03:27:57;;;;;;;37.45;28.20;;;21.10;99.90;;;;;;5054933;28;20112;-57
2022/07/24 03:30:23;;;;;;;44.55;29.25;;;21.10;99.90;;;;;;5055493;28;20078;-57
2022/07/24 03:32:49;;;;;;;47.33;29.38;;;21.00;99.90;;;;;;5055705;28;20453;-57
2022/07/24 03:35:15;;;;;;;50.55;29.92;;;21.00;99.90;;;;;;5055420;28;20383;-57
2022/07/24 03:37:41;;;;;;;40.00;28.15;;;20.90;99.90;;;;;;5055542;28;20037;-57
2022/07/24 03:40:07;;;;;;;45.50;27.80;;;20.90;99.90;;;;;;5055386;28;20043;-57
2022/07/24 03:42:34;;;;;;;39.58;28.17;;;20.90;99.90;;;;;;5055282;28;20112;-57
2022/07/24 03:45:00;;;;;;;48.25;29.75;;;20.90;99.90;;;;;;5055334;28;20459;-57
2022/07/24 03:47:26;;;;;;;47.05;29.58;;;20.90;99.90;;;;;;5055142;28;20045;-57
2022/07/24 03:49:52;;;;;;;50.45;29.45;;;20.90;99.90;;;;;;5055110;28;20137;-57
2022/07/24 03:52:18;;;;;;;42.03;29.58;;;20.80;99.90;;;;;;5055137;28;20029;-57
2022/07/24 03:54:44;;;;;;;48.97;28.30;;;20.80;99.90;;;;;;5055060;28;20079;-57
2022/07/24 03:57:10;;;;;;;43.63;27.73;;;20.90;99.90;;;;;;5055061;28;20029;-57
2022/07/24 03:59:36;;;;;;;40.40;27.23;;;20.80;99.90;;;;;;5054968;28;20060;-57
2022/07/24 04:02:02;;;;;;;43.28;29.20;;;20.90;99.90;;;;;;5054490;28;20029;-57
2022/07/24 04:04:27;;;;;;;39.97;28.65;;;20.90;99.90;;;;;;5054959;28;20460;-57
2022/07/24 04:06:53;;;;;;;49.30;28.42;;;20.90;99.90;;;;;;5054778;28;20033;-57
2022/07/24 04:09:19;;;;;;;42.08;27.40;;;20.90;99.90;;;;;;5054858;28;20024;-57
2022/07/24 04:11:46;;;;;;;37.88;26.52;;;21.00;99.90;;;;;;5054704;28;20408;-57
2022/07/24 04:14:12;;;;;;;42.92;26.67;;;21.00;99.90;;;;;;5054818;28;20075;-57
2022/07/24 04:16:38;;;;;;;40.55;27.60;;;21.10;99.90;;;;;;5054644;28;20509;-57
2022/07/24 04:19:04;;;;;;;41.33;27.50;;;21.00;99.90;;;;;;5054742;28;20041;-57
2022/07/24 04:21:30;;;;;;;38.35;25.73;;;21.10;99.90;;;;;;5054606;28;20040;-57
2022/07/24 04:23:56;;;;;;;43.90;31.00;;;21.10;99.90;;;;;;5054579;28;20035;-57
2022/07/24 04:26:22;;;;;;;40.13;28.63;;;21.20;99.90;;;;;;5054572;28;20035;-57
2022/07/24 04:28:48;;;;;;;49.80;29.38;;;21.30;99.90;;;;;;5054418;28;20067;-57
2022/07/24 04:31:13;;;;;;;45.25;30.35;;;21.30;99.90;;;;;;5055002;28;20151;-57
2022/07/24 04:33:39;;;;;;;45.50;30.73;;;21.40;99.90;;;;;;5054362;28;20516;-57
2022/07/24 04:36:06;;;;;;;44.63;29.77;;;21.40;99.90;;;;;;5054317;28;20438;-57
2022/07/24 04:38:35;;;;;;;50.83;30.85;;;21.50;99.90;;;;;;5054186;28;20439;-57
2022/07/24 04:41:01;;;;;;;45.33;30.17;;;21.60;99.90;;;;;;5054548;28;20025;-58
2022/07/24 04:43:28;;;;;;;51.08;30.98;;;21.60;99.90;;;;;;5054604;28;20025;-57
2022/07/24 04:45:54;;;;;;;44.55;28.02;;;21.80;99.90;;;;;;5054274;28;20146;-57
2022/07/24 04:48:19;;;;;;;44.58;29.60;;;21.90;99.90;;;;;;5054186;28;20506;-57
2022/07/24 04:50:45;;;;;;;43.08;28.75;;;21.90;99.90;;;;;;5054374;28;20057;-57
2022/07/24 04:53:12;;;;;;;41.95;29.75;;;22.00;99.90;;;;;;5054140;28;20048;-57
2022/07/24 04:55:38;;;;;;;36.72;26.70;;;22.00;99.90;;;;;;5054068;28;20017;-57
2022/07/24 04:58:04;;;;;;;45.20;28.60;;;22.10;99.90;;;;;;5054060;28;20060;-57
2022/07/24 05:00:30;;;;;;;54.22;29.77;;;22.30;99.90;;;;;;5054221;28;20438;-57
2022/07/24 05:02:55;;;;;;;44.47;29.55;;;22.30;99.90;;;;;;5054031;28;20110;-57
2022/07/24 05:05:22;;;;;;;46.40;28.42;;;22.40;99.90;;;;;;5054077;28;20027;-57
2022/07/24 05:07:48;;;;;;;41.58;28.77;;;22.50;99.90;;;;;;5054024;28;20104;-57
2022/07/24 05:10:13;;;;;;;42.35;28.20;;;22.60;99.90;;;;;;5054144;28;20463;-57
2022/07/24 05:12:39;;;;;;;39.20;27.80;;;22.80;99.90;;;;;;5053912;28;20060;-57
2022/07/24 05:15:07;;;;;;;39.30;28.10;;;23.00;99.90;;;;;;5053978;28;20025;-57
2022/07/24 05:17:34;;;;;;;40.65;28.75;;;23.10;99.90;;;;;;5054021;28;20486;-57
2022/07/24 05:20:00;;;;;;;41.35;25.90;;;23.30;99.90;;;;;;5054200;28;20021;-57
2022/07/24 05:22:26;;;;;;;36.58;25.33;;;23.40;99.90;;;;;;5054062;28;20032;-57
2022/07/24 05:24:52;;;;;;;41.35;22.85;;;23.50;99.90;;;;;;5054007;28;20530;-57
2022/07/24 05:27:18;;;;;;;27.08;19.80;;;23.60;99.90;;;;;;5053863;28;20078;-57
2022/07/24 05:29:44;;;;;;;28.60;19.00;;;23.70;99.90;;;;;;5053916;28;20028;-57
2022/07/24 05:32:10;;;;;;;22.98;16.15;;;23.80;99.90;;;;;;5054098;28;20060;-57
2022/07/24 05:34:36;;;;;;;22.15;15.02;;;23.90;99.90;;;;;;5053910;28;20037;-57
2022/07/24 05:37:02;;;;;;;25.35;14.65;;;24.10;98.30;;;;;;5053831;28;20077;-57
2022/07/24 05:39:27;;;;;;;22.73;15.25;;;24.10;97.50;;;;;;5053901;28;20082;-57
2022/07/24 05:41:53;;;;;;;26.38;15.60;;;24.30;96.80;;;;;;5053759;28;20029;-57
2022/07/24 05:44:19;;;;;;;19.67;14.05;;;24.40;96.80;;;;;;5053817;28;20040;-57
2022/07/24 05:46:45;;;;;;;20.60;13.70;;;24.50;96.20;;;;;;5053790;28;20040;-57
2022/07/24 05:49:11;;;;;;;19.20;13.65;;;24.60;95.70;;;;;;5053816;28;20044;-57
2022/07/24 05:51:37;;;;;;;24.17;13.30;;;24.80;95.10;;;;;;5056975;28;20060;-57
2022/07/24 05:54:03;;;;;;;19.40;12.48;;;24.80;94.40;;;;;;5057255;28;20021;-57
2022/07/24 05:56:29;;;;;;;15.90;12.10;;;25.00;93.40;;;;;;5057387;28;20429;-57
2022/07/24 05:58:55;;;;;;;19.35;12.27;;;25.20;93.40;;;;;;5057223;28;20241;-57
2022/07/24 06:01:21;;;;;;;20.73;12.52;;;25.30;92.60;;;;;;5057295;28;20406;-57
2022/07/24 06:03:47;;;;;;;17.70;10.85;;;25.40;92.20;;;;;;5057120;28;20053;-57
2022/07/24 06:06:13;;;;;;;14.02;10.82;;;25.60;91.20;;;;;;5057075;28;20063;-57
2022/07/24 06:08:39;;;;;;;16.63;11.30;;;25.80;91.20;;;;;;5057223;28;20441;-57
2022/07/24 06:11:05;;;;;;;19.05;11.00;;;25.90;91.20;;;;;;5057007;28;20444;-57
2022/07/24 06:13:31;;;;;;;18.60;9.80;;;26.10;91.10;;;;;;5057087;28;20025;-57
2022/07/24 06:15:57;;;;;;;12.63;9.35;;;26.30;87.20;;;;;;5056992;28;20036;-58
2022/07/24 06:18:24;;;;;;;14.73;9.77;;;26.40;86.40;;;;;;5056594;28;20033;-57
2022/07/24 06:20:50;;;;;;;13.07;8.77;;;26.60;84.40;;;;;;5056864;28;20111;-58
2022/07/24 06:23:15;;;;;;;11.98;8.77;;;26.80;84.10;;;;;;5056944;28;20037;-58
2022/07/24 06:25:41;;;;;;;9.73;7.82;;;26.80;81.30;;;;;;5056656;28;20029;-57
2022/07/24 06:28:07;;;;;;;14.05;7.90;;;27.00;78.20;;;;;;5056742;28;20029;-57
2022/07/24 06:30:33;;;;;;;11.30;7.95;;;27.20;77.30;;;;;;5056716;28;20029;-57
2022/07/24 06:32:59;;;;;;;9.25;7.53;;;27.40;75.50;;;;;;5038899;28;20032;-58
2022/07/24 06:35:27;;;;;;;10.15;7.43;;;27.50;73.30;;;;;;5056594;28;20029;-58
2022/07/24 06:37:55;;;;;;;11.80;6.78;;;27.60;72.60;;;;;;5056698;28;20021;-57
2022/07/24 06:40:21;;;;;;;12.15;6.68;;;27.80;71.00;;;;;;5056520;28;20036;-58
2022/07/24 06:42:48;;;;;;;10.15;7.53;;;27.80;69.60;;;;;;5056478;28;20025;-57
2022/07/24 06:45:15;;;;;;;11.63;6.60;;;28.00;69.70;;;;;;5056553;28;20063;-58
2022/07/24 06:47:41;;;;;;;9.13;6.93;;;28.00;69.40;;;;;;5056309;28;20033;-58
2022/07/24 06:50:08;;;;;;;8.48;6.82;;;28.20;68.50;;;;;;5056310;28;20056;-57
2022/07/24 06:52:34;;;;;;;10.05;7.18;;;28.30;67.60;;;;;;5056625;28;20032;-57
2022/07/24 06:55:00;;;;;;;12.60;7.50;;;28.50;67.70;;;;;;5056189;28;20033;-58
2022/07/24 06:57:26;;;;;;;9.13;6.70;;;28.60;66.70;;;;;;5056221;28;20111;-57
2022/07/24 06:59:53;;;;;;;9.35;6.97;;;28.60;65.00;;;;;;5056123;28;20029;-57
2022/07/24 07:02:21;;;;;;;8.98;6.55;;;28.70;65.00;;;;;;5054774;28;20053;-57
2022/07/24 07:04:49;;;;;;;9.15;6.97;;;28.80;65.70;;;;;;5055964;28;20032;-58
2022/07/24 07:07:15;;;;;;;9.52;6.45;;;29.00;63.10;;;;;;5056166;28;20032;-58
2022/07/24 07:09:44;;;;;;;10.15;5.95;;;28.80;62.10;;;;;;5056097;28;20092;-58
2022/07/24 07:12:10;;;;;;;10.65;6.55;;;28.90;61.10;;;;;;5055944;28;20458;-58
2022/07/24 07:14:36;;;;;;;8.15;6.88;;;29.20;62.80;;;;;;5055856;28;20478;-58
2022/07/24 07:17:02;;;;;;;19.77;7.80;;;29.60;60.30;;;;;;5055990;28;20078;-58
2022/07/24 07:19:28;;;;;;;10.55;5.78;;;30.00;58.60;;;;;;5055937;28;20036;-57
2022/07/24 07:21:54;;;;;;;7.30;5.75;;;30.10;58.80;;;;;;5055690;28;20037;-57
2022/07/24 07:24:20;;;;;;;8.35;6.50;;;30.40;59.10;;;;;;5055786;28;20071;-58
2022/07/24 07:26:46;;;;;;;7.78;6.30;;;30.60;57.50;;;;;;5055679;28;20049;-58
2022/07/24 07:29:12;;;;;;;20.40;7.13;;;30.70;55.10;;;;;;5055658;28;20064;-58
2022/07/24 07:31:37;;;;;;;7.70;6.25;;;30.90;56.10;;;;;;5055685;28;20037;-58
2022/07/24 07:34:03;;;;;;;7.82;6.40;;;30.80;56.30;;;;;;5055547;28;20025;-58
2022/07/24 07:36:29;;;;;;;10.10;6.38;;;31.00;55.40;;;;;;5055346;28;20040;-58
2022/07/24 07:38:57;;;;;;;9.95;6.22;;;31.40;54.50;;;;;;5055493;28;20043;-58
2022/07/24 07:41:24;;;;;;;10.35;6.03;;;31.70;54.60;;;;;;5055363;28;20075;-58
2022/07/24 07:43:50;;;;;;;7.63;5.95;;;31.90;53.30;;;;;;5055427;28;20095;-58
2022/07/24 07:46:16;;;;;;;7.85;6.10;;;32.10;53.40;;;;;;5054923;28;20470;-58
2022/07/24 07:48:42;;;;;;;8.80;6.40;;;31.80;53.00;;;;;;5055323;28;20029;-58
2022/07/24 07:51:08;;;;;;;11.10;6.40;;;32.10;52.10;;;;;;5055089;28;20103;-58
2022/07/24 07:53:34;;;;;;;9.50;6.28;;;32.30;51.50;;;;;;5054983;28;20029;-58
2022/07/24 07:56:01;;;;;;;8.43;6.55;;;31.70;50.80;;;;;;5055090;28;20031;-58
2022/07/24 07:58:27;;;;;;;8.30;5.93;;;31.60;52.50;;;;;;5054873;28;20548;-58
2022/07/24 08:00:54;;;;;;;11.27;6.45;;;32.30;52.20;;;;;;5055061;28;20036;-58
2022/07/24 08:03:20;;;;;;;8.05;6.05;;;32.80;50.60;;;;;;5054826;28;20037;-58
2022/07/24 08:05:46;;;;;;;7.53;5.80;;;33.40;50.00;;;;;;5054767;28;20043;-58
2022/07/24 08:08:12;;;;;;;7.18;5.80;;;33.70;49.50;;;;;;5054958;28;20104;-58
2022/07/24 08:10:38;;;;;;;6.18;5.18;;;33.70;48.80;;;;;;5054860;28;20064;-58
2022/07/24 08:13:04;;;;;;;10.27;6.25;;;33.70;47.90;;;;;;5054782;28;20079;-58
2022/07/24 08:15:30;;;;;;;9.32;6.43;;;33.80;47.30;;;;;;5055111;28;20098;-58
2022/07/24 08:17:58;;;;;;;12.55;7.60;;;33.70;48.00;;;;;;5054640;28;20041;-58
2022/07/24 08:20:25;;;;;;;7.47;6.15;;;33.50;48.10;;;;;;5036727;28;20064;-58
2022/07/24 08:22:51;;;;;;;11.18;6.03;;;33.80;48.20;;;;;;5054609;28;20104;-58
2022/07/24 08:25:18;;;;;;;9.40;6.45;;;34.00;47.90;;;;;;5054583;28;20537;-58
2022/07/24 08:27:44;;;;;;;6.72;5.38;;;34.30;46.30;;;;;;5054516;28;20466;-58
2022/07/24 08:30:11;;;;;;;7.85;5.88;;;34.30;46.00;;;;;;5054473;28;20039;-58
2022/07/24 08:32:37;;;;;;;8.35;6.03;;;34.30;46.40;;;;;;5054491;28;20029;-58
2022/07/24 08:35:04;;;;;;;6.65;5.22;;;33.90;46.10;;;;;;5054409;28;20033;-58
2022/07/24 08:37:34;;;;;;;10.23;5.65;;;33.80;46.10;;;;;;5054394;28;20104;-58
2022/07/24 08:40:00;;;;;;;13.55;6.20;;;34.30;46.30;;;;;;5054528;28;20029;-58
2022/07/24 08:42:26;;;;;;;10.20;5.95;;;34.40;46.60;;;;;;5054288;28;20449;-58
2022/07/24 08:44:52;;;;;;;9.38;5.57;;;34.90;44.60;;;;;;5054425;28;20659;-58
2022/07/24 08:47:19;;;;;;;10.15;6.00;;;34.90;45.30;;;;;;5054135;28;20040;-58
2022/07/24 08:49:48;;;;;;;9.35;6.00;;;34.70;44.80;;;;;;5054429;28;20036;-58
2022/07/24 08:52:17;;;;;;;8.80;6.53;;;34.70;44.20;;;;;;5054338;28;20025;-58
2022/07/24 08:54:43;;;;;;;9.45;5.68;;;34.50;44.40;;;;;;5054436;28;20032;-58
2022/07/24 08:57:09;;;;;;;9.98;5.78;;;34.20;45.30;;;;;;5054120;28;20033;-58
2022/07/24 08:59:35;;;;;;;6.85;5.38;;;33.20;46.00;;;;;;5054190;28;20540;-58
2022/07/24 09:02:01;;;;;;;10.40;5.50;;;33.50;46.90;;;;;;5054235;28;20445;-58
2022/07/24 09:04:43;;;;;;;6.82;5.50;;;33.80;47.00;;;;;;5053994;28;20052;-58
2022/07/24 09:07:13;;;;;;;6.53;5.65;;;34.30;46.10;;;;;;5053981;28;20122;-58
2022/07/24 09:09:40;;;;;;;10.00;6.38;;;34.40;44.00;;;;;;5054097;28;20021;-58
2022/07/24 09:12:09;;;;;;;7.63;5.65;;;34.30;44.10;;;;;;5053906;28;20029;-58
2022/07/24 09:14:40;;;;;;;7.78;5.93;;;34.30;44.00;;;;;;5054094;28;20033;-58
2022/07/24 09:17:09;;;;;;;7.35;5.20;;;34.30;44.20;;;;;;5054003;28;20033;-58
2022/07/24 09:19:57;;;;;;;6.80;5.38;;;34.50;43.50;;;;;;5053864;28;20528;-58
2022/07/24 09:22:34;;;;;;;9.82;5.95;;;34.30;44.40;;;;;;5054022;28;20025;-58
2022/07/24 09:25:18;;;;;;;6.63;5.43;;;34.20;44.80;;;;;;5054887;28;20043;-58
2022/07/24 09:27:56;;;;;;;7.75;4.85;;;34.10;44.80;;;;;;5057953;28;20029;-58
2022/07/24 09:30:41;;;;;;;6.03;5.43;;;34.50;43.00;;;;;;5057735;28;20099;-58
2022/07/24 09:33:12;;;;;;;7.05;4.53;;;34.50;42.80;;;;;;5057617;28;20036;-58
2022/07/24 09:35:40;;;;;;;6.35;5.25;;;34.20;44.40;;;;;;5057819;28;20032;-58
2022/07/24 09:38:08;;;;;;;7.40;5.90;;;34.30;42.80;;;;;;5057632;28;20072;-58
2022/07/24 09:40:37;;;;;;;7.05;5.38;;;34.50;44.00;;;;;;5057612;28;20041;-58
2022/07/24 09:43:22;;;;;;;7.53;4.88;;;34.60;42.00;;;;;;5057549;28;20033;-58
2022/07/24 09:45:59;;;;;;;8.43;6.22;;;35.10;42.60;;;;;;5057435;28;20041;-58
2022/07/24 09:48:28;;;;;;;5.88;5.25;;;35.40;41.10;;;;;;5057541;28;20029;-58
2022/07/24 09:50:56;;;;;;;6.70;4.72;;;35.80;40.40;;;;;;5057459;28;20033;-58
2022/07/24 09:53:25;;;;;;;9.00;5.53;;;34.70;39.00;;;;;;5057475;28;20147;-58
2022/07/24 09:56:05;;;;;;;10.02;5.47;;;35.60;39.30;;;;;;5057358;28;20116;-58
2022/07/24 09:58:33;;;;;;;;;;;36.00;38.90;;;;;;5057947;28;20112;-58
2022/07/24 10:01:00;;;;;;;4.53;4.13;;;35.40;38.30;;;;;;5057321;28;20004;-58
2022/07/24 10:03:34;;;;;;;8.90;4.40;;;35.40;38.10;;;;;;5057148;28;20092;-58
2022/07/24 10:06:05;;;;;;;6.25;4.78;;;34.90;38.40;;;;;;5057104;28;20029;-58
2022/07/24 10:08:33;;;;;;;8.93;5.53;;;34.50;40.00;;;;;;5057073;28;20055;-58
2022/07/24 10:11:00;;;;;;;7.53;4.93;;;35.00;40.60;;;;;;5057138;28;20096;-58
2022/07/24 10:13:30;;;;;;;10.93;5.88;;;35.70;39.00;;;;;;5057191;28;20657;-58
2022/07/24 10:16:11;;;;;;;;;;;36.10;37.90;;;;;;5057383;28;20056;-58
2022/07/24 10:19:14;;;;;;;6.75;4.28;;;36.50;37.60;;;;;;5057164;28;19919;-58
2022/07/24 10:21:52;;;;;;;6.07;4.70;;;35.70;37.00;;;;;;5056934;28;20120;-58
2022/07/24 10:24:53;;;;;;;5.50;4.78;;;34.50;38.30;;;;;;5056816;28;20219;-58
2022/07/24 10:27:32;;;;;;;6.35;4.47;;;34.70;40.10;;;;;;5049324;28;20512;-58
2022/07/24 10:30:02;;;;;;;6.53;4.65;;;35.80;41.10;;;;;;5056741;28;20021;-58
2022/07/24 10:32:30;;;;;;;6.32;4.93;;;36.00;39.90;;;;;;5056727;28;20021;-58
2022/07/24 10:35:12;;;;;;;7.88;4.50;;;36.90;37.30;;;;;;5056546;28;20451;-58
2022/07/24 10:37:50;;;;;;;5.22;4.45;;;37.20;36.50;;;;;;5056007;28;20064;-58
2022/07/24 10:40:34;;;;;;;7.55;5.13;;;35.60;37.30;;;;;;5056662;28;20490;-58
2022/07/24 10:43:09;;;;;;;5.57;4.80;;;35.70;37.40;;;;;;5056750;28;20433;-58
2022/07/24 10:45:36;;;;;;;7.00;4.95;;;36.40;37.40;;;;;;5056606;28;20037;-58
2022/07/24 10:48:20;;;;;;;6.90;5.25;;;37.10;36.50;;;;;;5056295;28;20021;-58
2022/07/24 10:50:58;;;;;;;7.70;5.32;;;36.60;37.10;;;;;;5056407;28;20036;-58
2022/07/24 10:53:30;;;;;;;8.32;4.68;;;35.90;36.90;;;;;;5056300;28;20025;-58
2022/07/24 10:56:19;;;;;;;9.10;4.88;;;36.30;37.60;;;;;;5056288;28;20025;-58
2022/07/24 10:59:07;;;;;;;7.70;4.28;;;36.70;36.60;;;;;;5055965;28;20033;-58
2022/07/24 11:01:44;;;;;;;6.63;4.03;;;36.30;34.70;;;;;;5056341;28;20029;-58
2022/07/24 11:04:19;;;;;;;6.13;4.32;;;36.40;34.70;;;;;;5055968;28;20044;-58
2022/07/24 11:06:51;;;;;;;10.77;5.20;;;36.80;35.40;;;;;;5055927;28;20110;-58
2022/07/24 11:09:19;;;;;;;10.25;4.93;;;37.30;35.80;;;;;;5056115;28;20078;-58
2022/07/24 11:11:51;;;;;;;7.60;4.90;;;37.30;34.60;;;;;;5038089;28;20059;-58
2022/07/24 11:14:24;;;;;;;6.07;4.30;;;37.30;34.60;;;;;;5056124;28;20036;-58
2022/07/24 11:16:50;;;;;;;6.95;4.60;;;36.80;34.90;;;;;;5055696;28;20466;-58
2022/07/24 11:19:16;;;;;;;4.65;4.13;;;37.50;34.80;;;;;;5055636;28;20049;-58
2022/07/24 11:21:46;;;;;;;15.90;6.32;;;37.60;33.30;;;;;;5055809;28;20088;-58
2022/07/24 11:24:21;;;;;;;7.47;5.50;;;36.30;34.30;;;;;;5055710;28;20060;-58
2022/07/24 11:27:20;;;;;;;8.88;5.40;;;36.10;36.10;;;;;;5055559;28;20470;-58
2022/07/24 11:29:52;;;;;;;6.43;4.97;;;35.70;38.30;;;;;;5032999;28;20116;-58
2022/07/24 11:32:18;;;;;;;9.30;4.43;;;36.70;36.80;;;;;;5055600;28;20148;-58
2022/07/24 11:34:46;;;;;;;6.80;5.43;;;37.50;35.50;;;;;;5055511;28;20056;-58
2022/07/24 11:37:12;;;;;;;7.88;4.55;;;37.20;33.20;;;;;;5055298;28;20104;-58
2022/07/24 11:39:40;;;;;;;7.75;4.50;;;37.10;34.50;;;;;;5055443;28;20029;-58
2022/07/24 11:42:08;;;;;;;6.18;4.50;;;36.30;33.80;;;;;;5055217;28;20118;-58
2022/07/24 11:44:43;;;;;;;6.57;4.80;;;37.30;35.00;;;;;;5055508;28;20054;-58
2022/07/24 11:47:16;;;;;;;5.20;4.63;;;37.60;33.70;;;;;;5054827;28;20478;-57
2022/07/24 11:49:55;;;;;;;7.63;4.38;;;37.80;34.00;;;;;;5055029;28;20021;-58
2022/07/24 11:52:31;;;;;;;5.38;4.53;;;37.80;33.70;;;;;;5055139;28;20044;-58
2022/07/24 11:55:09;;;;;;;13.00;5.10;;;37.80;32.60;;;;;;5055517;28;20478;-58
2022/07/24 11:57:38;;;;;;;6.47;5.07;;;37.90;33.40;;;;;;5055007;28;20096;-58
2022/07/24 12:00:09;;;;;;;7.10;5.10;;;37.40;33.20;;;;;;5055056;28;20089;-58
2022/07/24 12:02:44;;;;;;;5.07;4.55;;;36.40;34.60;;;;;;5054967;28;20055;-58
2022/07/24 12:05:10;;;;;;;9.13;4.85;;;36.30;35.60;;;;;;5054962;28;20059;-58
2022/07/24 12:07:36;;;;;;;6.57;4.90;;;36.60;35.90;;;;;;5054784;28;20110;-58
2022/07/24 12:10:03;;;;;;;7.85;4.95;;;36.40;35.90;;;;;;5054897;28;20031;-58
2022/07/24 12:12:31;;;;;;;8.85;5.10;;;36.50;37.10;;;;;;5054848;28;20036;-58
2022/07/24 12:15:13;;;;;;;7.47;5.20;;;36.40;37.10;;;;;;5054689;28;20029;-58
2022/07/24 12:17:59;;;;;;;10.77;5.47;;;36.10;38.40;;;;;;5054472;28;20033;-58
2022/07/24 12:20:30;;;;;;;15.45;7.00;;;36.30;39.20;;;;;;5054851;28;20641;-58
2022/07/24 12:22:58;;;;;;;9.93;5.30;;;35.10;40.60;;;;;;5055007;28;20504;-58
2022/07/24 12:25:24;;;;;;;7.85;4.80;;;35.50;40.80;;;;;;5054639;28;20044;-58
2022/07/24 12:28:01;;;;;;;12.18;4.75;;;35.40;41.00;;;;;;5054576;28;20032;-58
2022/07/24 12:30:32;;;;;;;8.82;4.85;;;35.60;41.00;;;;;;5054543;28;20029;-58
2022/07/24 12:33:05;;;;;;;5.45;4.45;;;35.20;41.10;;;;;;5054688;28;20033;-58
2022/07/24 12:35:35;;;;;;;5.80;4.20;;;36.00;40.50;;;;;;5054493;28;20029;-58
2022/07/24 12:38:03;;;;;;;4.60;3.80;;;36.50;39.00;;;;;;5054357;28;20025;-58
2022/07/24 12:40:35;;;;;;;4.13;3.40;;;36.70;37.90;;;;;;5054509;28;20036;-58